Time;durP1;ratioP1;P1;durP2;ratioP2;P2;SDS_P1;SDS_P2;PMS_P1;PMS_P2;Temp;Humidity;BMP_temperature;BMP_pressure;BME280_temperature;BME280_humidity;BME280_pressure;Samples;Min_cycle;Max_cycle;Signal;HPM_P1;HPM_P2
2022/04/17 00:07:58;;;;;;;2.65;2.28;;;;;;;22.28;43.33;101257.63;20388440;28;97439;-81
2022/04/17 00:17:58;;;;;;;;;;;;;;;22.28;43.08;101255.00;20384825;28;97359;-81
2022/04/17 00:27:59;;;;;;;2.60;2.20;;;;;;;22.17;40.25;101247.81;20377943;28;96984;-81
2022/04/17 00:38:00;;;;;;;2.67;2.47;;;;;;;22.19;42.59;101242.44;20378951;28;97306;-81
2022/04/17 00:48:00;;;;;;;2.50;2.30;;;;;;;22.19;42.81;101237.16;20388008;28;98727;-81
2022/04/17 00:58:08;;;;;;;2.92;2.33;;;;;;;22.17;43.17;101229.34;20401393;28;98186;-81
2022/04/17 01:08:12;;;;;;;3.38;2.30;;;;;;;22.17;43.06;101226.72;20398441;28;98403;-79
2022/04/17 01:18:14;;;;;;;1.98;1.88;;;;;;;22.17;42.93;101218.78;20391403;28;98021;-80
2022/04/17 01:28:16;;;;;;;2.35;1.98;;;;;;;22.15;42.96;101217.22;20392281;28;97721;-78
2022/04/17 01:38:16;;;;;;;2.25;2.05;;;;;;;22.14;43.33;101219.03;20385112;28;97408;-80
2022/04/17 01:48:18;;;;;;;1.92;1.80;;;;;;;22.12;43.17;101207.72;20397116;28;97837;-80
2022/04/17 01:58:21;;;;;;;3.03;2.00;;;;;;;22.12;43.12;101207.72;20386062;28;97083;-79
2022/04/17 02:08:22;;;;;;;2.58;2.03;;;;;;;22.11;42.99;101206.03;20378573;28;96992;-80
2022/04/17 02:18:25;;;;;;;2.15;1.95;;;;;;;22.09;43.02;101207.09;20387005;28;98194;-79
2022/04/17 02:28:27;;;;;;;2.22;2.03;;;;;;;22.06;43.14;101206.34;20395624;28;102620;-80
2022/04/17 02:38:28;;;;;;;2.42;1.83;;;;;;;22.07;43.12;101207.19;20388278;28;97094;-82
2022/04/17 02:48:31;;;;;;;2.90;2.03;;;;;;;22.04;42.79;101196.84;20387811;28;97305;-80
2022/04/17 02:58:32;;;;;;;2.03;1.80;;;;;;;22.03;42.59;101197.78;20379413;28;100863;-80
2022/04/17 03:08:33;;;;;;;1.95;1.77;;;;;;;22.00;42.70;101212.03;20384196;28;97525;-82
2022/04/17 03:18:33;;;;;;;1.90;1.63;;;;;;;22.00;43.02;101205.94;20407412;28;96932;-81
2022/04/17 03:28:34;;;;;;;1.77;1.67;;;;;;;21.98;42.50;101198.09;20380454;28;96981;-82
2022/04/17 03:38:34;;;;;;;1.70;1.60;;;;;;;21.96;42.72;101196.53;20385491;28;97079;-82
2022/04/17 03:48:35;;;;;;;1.60;1.50;;;;;;;21.95;42.70;101198.31;20390577;28;97000;-80
2022/04/17 03:58:35;;;;;;;2.33;2.13;;;;;;;21.94;42.39;101222.16;20356192;28;97498;-81
2022/04/17 04:08:36;;;;;;;1.58;1.48;;;;;;;21.89;42.33;101227.75;20394208;28;98119;-80
2022/04/17 04:18:37;;;;;;;2.05;1.80;;;;;;;21.88;42.72;101231.31;20395035;28;99405;-81
2022/04/17 04:28:38;;;;;;;5.55;2.00;;;;;;;21.87;42.77;101234.91;20393773;28;99391;-81
2022/04/17 04:38:39;;;;;;;1.80;1.70;;;;;;;21.86;43.08;101241.13;20402327;28;97027;-81
2022/04/17 04:59:04;;;;;;;4.95;1.90;;;;;;;21.94;43.15;101238.81;20390357;28;97353;-81
2022/04/17 05:09:04;;;;;;;4.05;1.70;;;;;;;21.98;43.74;101234.19;20411111;28;97074;-80
2022/04/17 05:19:24;;;;;;;1.80;1.50;;;;;;;22.03;43.03;101232.06;20395452;28;100141;-80
2022/04/17 05:29:25;;;;;;;2.92;1.80;;;;;;;22.04;43.44;101234.59;20391924;28;97209;-80
2022/04/17 05:39:25;;;;;;;1.50;1.23;;;;;;;22.10;43.47;101232.53;20397189;28;97037;-80
2022/04/17 05:49:28;;;;;;;1.63;1.52;;;;;;;22.12;43.63;101235.88;20388392;28;97195;-80
2022/04/17 05:59:28;;;;;;;;;;;;;;;22.15;43.36;101235.69;20384311;28;97635;-81
2022/04/17 06:09:29;;;;;;;1.60;1.50;;;;;;;22.16;42.98;101230.28;20378620;28;101104;-78
2022/04/17 06:19:29;;;;;;;5.13;1.70;;;;;;;22.20;43.29;101234.44;20390562;28;98396;-77
2022/04/17 06:29:30;;;;;;;3.20;1.60;;;;;;;22.26;44.00;101235.78;20388905;28;97115;-78
2022/04/17 06:39:30;;;;;;;6.03;2.22;;;;;;;22.29;42.68;101234.72;20368469;28;97150;-76
2022/04/17 06:49:31;;;;;;;4.72;2.13;;;;;;;22.30;42.54;101237.28;20397086;28;97232;-78
2022/04/17 06:59:31;;;;;;;5.47;1.50;;;;;;;22.03;34.60;101240.84;20368087;28;98128;-75
2022/04/17 07:09:35;;;;;;;8.57;2.17;;;;;;;22.03;36.19;101237.34;20369834;28;100607;-80
2022/04/17 07:19:35;;;;;;;6.15;1.92;;;;;;;22.11;37.38;101235.03;20370947;28;97101;-78
2022/04/17 07:29:36;;;;;;;11.48;2.25;;;;;;;22.12;37.34;101242.00;20379500;28;98313;-78
2022/04/17 07:39:38;;;;;;;4.27;1.50;;;;;;;22.03;36.28;101242.63;20368309;28;100672;-79
2022/04/17 07:49:38;;;;;;;3.22;1.70;;;;;;;22.07;36.08;101229.13;20376168;28;100963;-79
2022/04/17 07:59:40;;;;;;;7.53;1.73;;;;;;;22.10;36.92;101220.16;20379958;28;97546;-78
2022/04/17 08:09:40;;;;;;;8.45;1.83;;;;;;;22.11;37.43;101216.59;20394991;28;99103;-79
2022/04/17 08:19:42;;;;;;;3.78;1.50;;;;;;;22.12;37.53;101214.78;20399753;28;100118;-78
2022/04/17 08:29:42;;;;;;;5.53;1.90;;;;;;;22.12;37.73;101199.81;20397145;28;98209;-77
2022/04/17 08:39:43;;;;;;;3.90;1.50;;;;;;;22.12;38.02;101196.31;20390180;28;100007;-79
2022/04/17 08:49:44;;;;;;;3.77;1.77;;;;;;;22.12;38.17;101176.06;20404659;28;101105;-79
2022/04/17 08:59:45;;;;;;;4.33;1.60;;;;;;;22.13;38.34;101169.84;20395979;28;97356;-79
2022/04/17 09:09:51;;;;;;;4.25;1.70;;;;;;;22.14;38.31;101145.16;20401568;28;98103;-79
2022/04/17 09:19:51;;;;;;;1.63;1.45;;;;;;;22.13;38.70;101142.63;20393479;28;97993;-79
2022/04/17 09:29:52;;;;;;;2.72;1.38;;;;;;;22.13;38.61;101127.66;20420541;28;96988;-79
2022/04/17 09:40:04;;;;;;;1.70;1.30;;;;;;;22.15;38.67;101112.53;20389166;28;99345;-78
2022/04/17 09:50:08;;;;;;;;;;;;;;;22.22;38.14;101102.41;20398687;28;97964;-78
2022/04/17 10:00:09;;;;;;;2.30;1.40;;;;;;;22.28;38.53;101087.97;20399376;28;98149;-77
2022/04/17 10:10:11;;;;;;;1.30;1.20;;;;;;;22.33;38.35;101072.63;20391081;28;99050;-78
2022/04/17 10:20:13;;;;;;;1.30;1.20;;;;;;;22.37;38.73;101077.59;20465198;28;98944;-78
2022/04/17 10:30:20;;;;;;;1.37;1.20;;;;;;;22.42;38.60;101055.31;20469388;28;98054;-78
2022/04/17 10:40:22;;;;;;;2.08;1.40;;;;;;;22.49;38.52;101043.38;20478609;28;96978;-78
2022/04/17 10:50:23;;;;;;;1.45;1.35;;;;;;;22.53;38.42;101036.91;20473742;28;97410;-78
2022/04/17 11:00:33;;;;;;;1.85;1.65;;;;;;;22.55;38.58;101022.66;20483322;28;96954;-79
2022/04/17 11:10:41;;;;;;;2.15;1.65;;;;;;;22.59;38.41;101017.97;20481084;28;96939;-79
2022/04/17 11:20:51;;;;;;;2.35;1.50;;;;;;;22.62;38.31;101003.72;20468795;28;97424;-78
2022/04/17 11:30:53;;;;;;;1.70;1.60;;;;;;;22.70;38.35;100982.88;20468923;28;96960;-77
2022/04/17 11:40:54;;;;;;;;;;;;;;;22.82;38.37;100976.66;20455678;28;97013;-78
2022/04/17 11:50:55;;;;;;;2.40;1.80;;;;;;;22.83;38.78;100972.25;20493582;28;96999;-78
2022/04/17 12:01:01;;;;;;;2.67;2.10;;;;;;;22.96;38.89;100954.53;20472538;28;96817;-78
2022/04/17 12:11:06;;;;;;;3.40;1.83;;;;;;;23.00;38.97;100955.13;20474925;28;97052;-78
2022/04/17 12:21:07;;;;;;;2.75;1.90;;;;;;;23.05;38.62;100942.41;20490748;28;97620;-79
2022/04/17 12:31:07;;;;;;;2.20;2.00;;;;;;;23.11;38.59;100943.75;20476526;28;97289;-78
2022/04/17 12:41:22;;;;;;;2.43;2.10;;;;;;;23.23;38.29;100928.75;20467437;28;97272;-78
2022/04/17 12:51:24;;;;;;;2.67;2.10;;;;;;;23.27;38.60;100909.09;20399614;28;97191;-79
2022/04/17 13:01:27;;;;;;;2.17;1.98;;;;;;;23.25;38.06;100903.91;20390605;28;97407;-79
2022/04/17 13:11:42;;;;;;;2.67;2.42;;;;;;;23.40;38.07;100882.50;20418593;28;97244;-78
2022/04/17 13:21:43;;;;;;;2.85;2.30;;;;;;;23.41;38.04;100892.97;20404114;28;97056;-79
2022/04/17 13:31:43;;;;;;;2.95;2.30;;;;;;;23.53;37.92;100864.72;20424414;28;97284;-79
2022/04/17 13:41:44;;;;;;;3.75;2.08;;;;;;;23.52;38.11;100846.34;20390037;28;97041;-79
2022/04/17 13:51:47;;;;;;;2.10;1.88;;;;;;;23.51;37.88;100837.59;20391528;28;97116;-79
2022/04/17 14:01:48;;;;;;;2.15;1.90;;;;;;;23.57;37.98;100821.22;20464274;28;97759;-79
2022/04/17 14:11:49;;;;;;;2.43;1.90;;;;;;;23.65;37.96;100804.75;20476284;28;98421;-79
2022/04/17 14:21:49;;;;;;;2.50;1.92;;;;;;;23.76;38.15;100807.34;20475631;28;99971;-79
2022/04/17 14:31:50;;;;;;;2.05;1.70;;;;;;;23.89;37.98;100791.31;20469886;28;97631;-79
2022/04/17 14:41:51;;;;;;;2.70;1.90;;;;;;;24.05;37.61;100780.31;20467271;28;100502;-79
2022/04/17 14:51:58;;;;;;;1.63;1.52;;;;;;;24.52;36.53;100765.84;20483646;28;96952;-79
2022/04/17 15:02:01;;;;;;;1.70;1.55;;;;;;;24.97;35.52;100754.06;20484950;28;97516;-79
2022/04/17 15:12:01;;;;;;;1.30;1.20;;;;;;;25.47;35.07;100742.59;20484062;28;97220;-80
2022/04/17 15:22:02;;;;;;;;;;;;;;;26.05;33.77;100741.75;20489505;28;100014;-80
2022/04/17 15:32:03;;;;;;;1.70;1.60;;;;;;;26.25;33.25;100723.16;20489504;28;97104;-80
2022/04/17 15:42:04;;;;;;;1.47;1.37;;;;;;;26.17;33.70;100718.53;20483751;28;97039;-80
2022/04/17 15:52:06;;;;;;;1.30;1.20;;;;;;;26.13;33.43;100710.03;20478924;28;97052;-79
2022/04/17 16:02:07;;;;;;;3.08;1.50;;;;;;;25.77;30.59;100715.09;20471000;28;96961;-80
2022/04/17 16:12:07;;;;;;;3.73;1.50;;;;;;;25.72;33.58;100720.00;20431771;28;97461;-80
2022/04/17 16:22:08;;;;;;;6.67;1.60;;;;;;;25.18;35.12;100723.03;20440491;28;100130;-79
2022/04/17 16:32:08;;;;;;;4.97;1.60;;;;;;;24.77;36.01;100720.41;20475985;28;97898;-79
2022/04/17 16:42:09;;;;;;;3.07;1.30;;;;;;;24.48;36.17;100714.97;20473416;28;97092;-77
2022/04/17 16:52:09;;;;;;;2.92;1.50;;;;;;;24.22;37.08;100728.63;20458279;28;97582;-77
2022/04/17 17:02:10;;;;;;;2.75;1.40;;;;;;;24.06;36.89;100734.38;20469184;28;97752;-79
2022/04/17 17:12:10;;;;;;;5.65;1.50;;;;;;;23.93;36.96;100741.69;20454690;28;98451;-78
2022/04/17 17:22:11;;;;;;;2.20;1.25;;;;;;;23.84;36.26;100761.78;20451157;28;98384;-81
2022/04/17 17:32:12;;;;;;;2.85;1.20;;;;;;;23.67;32.02;100752.59;20478357;28;97592;-83
2022/04/17 17:42:14;;;;;;;2.90;1.50;;;;;;;23.45;30.53;100756.16;20483014;28;96827;-79
2022/04/17 17:52:17;;;;;;;2.33;1.77;;;;;;;23.25;31.01;100763.03;20481668;28;97682;-83
2022/04/17 18:02:23;;;;;;;6.32;1.65;;;;;;;23.24;31.83;100772.78;20451446;28;97509;-77
2022/04/17 18:22:48;;;;;;;3.35;1.80;;;;;;;23.04;34.21;100776.97;20406417;28;101255;-77
2022/04/17 18:32:48;;;;;;;5.60;1.98;;;;;;;23.01;34.60;100771.94;20442839;28;98172;-77
2022/04/17 18:42:49;;;;;;;1.75;1.50;;;;;;;22.91;35.05;100790.31;20460363;28;99210;-77
2022/04/17 18:52:49;;;;;;;2.55;1.67;;;;;;;22.88;34.93;100795.00;20440675;28;96981;-77
2022/04/17 19:02:50;;;;;;;1.75;1.48;;;;;;;22.81;35.35;100792.84;20420533;28;96976;-78
2022/04/17 19:23:10;;;;;;;4.05;1.70;;;;;;;22.73;35.84;100792.59;20435895;28;97545;-77
2022/04/17 19:43:30;;;;;;;2.50;1.60;;;;;;;22.69;36.58;100788.47;20443175;28;97253;-78
2022/04/17 19:53:30;;;;;;;3.15;1.88;;;;;;;22.65;36.49;100777.31;20449026;28;97322;-77
2022/04/17 20:03:31;;;;;;;4.25;2.00;;;;;;;22.62;36.98;100780.22;20451748;28;97653;-78
2022/04/17 20:13:32;;;;;;;4.47;1.77;;;;;;;22.60;36.91;100783.94;20446071;28;100307;-78
2022/04/17 20:23:32;;;;;;;2.08;1.73;;;;;;;22.56;37.31;100793.88;20442017;28;97345;-78
2022/04/17 20:33:33;;;;;;;4.55;1.65;;;;;;;22.55;37.28;100790.38;20439961;28;98738;-77
2022/04/17 20:53:53;;;;;;;2.92;1.80;;;;;;;22.48;37.58;100777.78;20453091;28;97921;-78
2022/04/17 21:03:54;;;;;;;2.17;1.77;;;;;;;22.46;37.86;100783.19;20442726;28;98869;-78
2022/04/17 21:13:54;;;;;;;2.15;1.60;;;;;;;22.48;37.96;100783.91;20442540;28;97004;-78
2022/04/17 21:23:55;;;;;;;3.05;1.77;;;;;;;22.42;37.84;100778.28;20445244;28;97554;-78
2022/04/17 21:33:55;;;;;;;1.55;1.45;;;;;;;22.41;38.07;100777.44;20454466;28;97126;-78
2022/04/17 21:43:56;;;;;;;2.15;1.50;;;;;;;22.39;37.74;100787.25;20440866;28;97889;-78
2022/04/17 21:53:58;;;;;;;2.47;1.80;;;;;;;22.38;38.10;100778.50;20442700;28;98130;-77
2022/04/17 22:14:19;;;;;;;1.58;1.48;;;;;;;22.35;38.20;100765.50;20441466;28;97668;-78
2022/04/17 22:24:20;;;;;;;1.85;1.60;;;;;;;22.31;38.31;100764.06;20453107;28;97919;-77
2022/04/17 22:34:20;;;;;;;2.25;1.65;;;;;;;22.31;38.33;100757.94;20446895;28;98224;-78
2022/04/17 22:44:21;;;;;;;2.13;1.43;;;;;;;22.30;38.54;100748.34;20425003;28;98123;-78
2022/04/17 22:54:21;;;;;;;1.40;1.30;;;;;;;22.27;38.37;100740.69;20354294;28;98092;-78
2022/04/17 23:04:22;;;;;;;1.67;1.40;;;;;;;22.22;38.67;100727.84;20359228;28;100335;-78
2022/04/17 23:14:22;;;;;;;1.50;1.40;;;;;;;22.21;38.83;100724.34;20377579;28;96931;-78
2022/04/17 23:24:23;;;;;;;1.40;1.20;;;;;;;22.22;38.40;100712.84;20368128;28;99372;-77
2022/04/17 23:34:23;;;;;;;2.13;1.23;;;;;;;22.19;38.77;100692.00;20362032;28;101358;-78
2022/04/17 23:44:26;;;;;;;1.73;1.30;;;;;;;22.19;38.89;100685.84;20368948;28;97507;-77
2022/04/17 23:54:26;;;;;;;2.75;1.42;;;;;;;22.16;38.93;100679.03;20371489;28;99143;-77
